Ana Sayfa
METAR-TAF:

METAR-TAF

Havaalanları :

Voronezh Uluslararası Havalimanı

Voronej, Rusya

Enlem: 51-39N, Boylam: 039-15E, yükseklik: 154 m

Güncel hava durumu gözlemi

Rapor saat 18:30 UTC de 26 dakika önce yapıldı.
Rüzgar kuzeydoğudan 6 kt
Sıcaklık 0°C
Nem 100%
Basınç 992 hPa
Görüş mesafesi: 1900 m
500 ft yükseklikte çok bulutlu
kar, Pus

METAR: UUOO 241830Z 05003MPS 1900 SN BR OVC005 00/00 Q0992 R12/590337 NOSIG RMK QFE731

Saat: 21:56 (18:56 UTC)

Tahmin

Rapor saat 17:00 UTC de 1 saat ve 56 dakika önce yapıldı.
Ayın 24'si saat 18 UTC'den ayın 25'si saat 03 UTC'ye kadar geçerli Tahmin
Rüzgar doğu/kuzeydoğudan 6 kt
Görüş mesafesi: 2400 m
400 ft yükseklikte çok bulutlu
hafif kar
Geçici
ayın 24'si saat 18 UTC'den ayın 24'si saat 24 UTC'ye kadar
Görüş mesafesi: 1100 m
300 ft yükseklikte çok bulutlu
kar

TAF: UUOO 241700Z 2418/2503 06003MPS 2400 -SN OVC004 TEMPO 2418/2424 1100 SN OVC003

4.000'den fazla havaalanı için hava durumu gözlemleri ve tahminleri (METAR ve TAF raporları).

Kullanılabilir istasyonlar harita üzerinde sarı ve kırmızı noktalarla gösterilir.

İstasyonun adını görmek için fareyi noktanın üzerinde gezdirin.

Sonrasında hava gözlem ve tahminlerini görmek için tıklayın.

Haritayı değiştirmek için: yaklaştırmak için siyah artı işaretli yeşil düğmeye ve uzaklaştırmak için de eksi işaretli düğmeye hızla tıklayın; bitişik haritalar için yeşil okları kullanın.


METAR-TAF: